Time;durP1;ratioP1;P1;durP2;ratioP2;P2;SDS_P1;SDS_P2;PMS_P1;PMS_P2;Temp;Humidity;BMP_temperature;BMP_pressure;BME280_temperature;BME280_humidity;BME280_pressure;Samples;Min_cycle;Max_cycle;Signal;HPM_P1;HPM_P2
2023/06/12 00:00:04;;;;;;;12.98;7.20;;;;;;;;;;6371871;22;20317;-65
2023/06/12 00:02:34;;;;;;;16.05;7.38;;;;;;;;;;6371916;22;20033;-65
2023/06/12 00:05:04;;;;;;;11.07;6.72;;;;;;;;;;6344525;22;20017;-65
2023/06/12 00:07:32;;;;;;;11.07;6.88;;;;;;;;;;6371573;22;20014;-65
2023/06/12 00:09:59;;;;;;;14.95;7.40;;;;;;;;;;6371808;22;20378;-65
2023/06/12 00:12:27;;;;;;;14.00;6.85;;;;;;;;;;6371965;22;20018;-65
2023/06/12 00:14:54;;;;;;;14.73;8.15;;;;;;;;;;6371884;22;20017;-65
2023/06/12 00:17:22;;;;;;;10.43;6.95;;;;;;;;;;6371466;22;20022;-65
2023/06/12 00:19:49;;;;;;;10.57;7.05;;;;;;;;;;6371790;22;20073;-65
2023/06/12 00:22:17;;;;;;;10.77;7.07;;;;;;;;;;6371472;22;20147;-65
2023/06/12 00:24:44;;;;;;;11.77;6.97;;;;;;;;;;6371899;22;20344;-65
2023/06/12 00:27:12;;;;;;;10.32;6.93;;;;;;;;;;6371868;22;20017;-65
2023/06/12 00:29:39;;;;;;;10.73;6.57;;;;;;;;;;6370836;22;20049;-66
2023/06/12 00:32:07;;;;;;;9.45;7.10;;;;;;;;;;6343505;22;20106;-65
2023/06/12 00:34:35;;;;;;;8.85;6.57;;;;;;;;;;6343977;22;20101;-65
2023/06/12 00:37:02;;;;;;;8.30;6.70;;;;;;;;;;6343893;22;20019;-65
2023/06/12 00:39:32;;;;;;;12.02;6.55;;;;;;;;;;6344973;22;20097;-65
2023/06/12 00:41:59;;;;;;;9.63;6.50;;;;;;;;;;6343155;22;20046;-65
2023/06/12 00:44:27;;;;;;;8.00;6.30;;;;;;;;;;6343577;22;20018;-65
2023/06/12 00:46:55;;;;;;;10.35;6.50;;;;;;;;;;6370692;22;20440;-65
2023/06/12 00:49:23;;;;;;;8.68;6.10;;;;;;;;;;6343671;22;20018;-65
2023/06/12 00:51:52;;;;;;;9.05;6.20;;;;;;;;;;6342721;22;20019;-65
2023/06/12 00:54:20;;;;;;;10.48;6.07;;;;;;;;;;6371513;22;20018;-65
2023/06/12 00:56:48;;;;;;;9.30;6.18;;;;;;;;;;6343693;22;20101;-65
2023/06/12 00:59:16;;;;;;;13.27;6.03;;;;;;;;;;6343787;22;20052;-65
2023/06/12 01:01:44;;;;;;;11.27;5.82;;;;;;;;;;6344258;22;20042;-65
2023/06/12 01:04:11;;;;;;;8.60;5.80;;;;;;;;;;6371987;22;20371;-65
2023/06/12 01:06:47;;;;;;;10.65;6.47;;;;;;;;;;6342985;22;20018;-64
2023/06/12 01:09:41;;;;;;;12.15;6.57;;;;;;;;;;6317560;22;20029;-64
2023/06/12 01:12:10;;;;;;;8.73;6.28;;;;;;;;;;6337674;22;20021;-64
2023/06/12 01:14:37;;;;;;;7.63;6.18;;;;;;;;;;6343797;22;20026;-64
2023/06/12 01:17:06;;;;;;;10.63;6.20;;;;;;;;;;6343598;22;20036;-64
2023/06/12 01:19:35;;;;;;;10.40;6.25;;;;;;;;;;6371629;22;20067;-64
2023/06/12 01:22:08;;;;;;;11.13;6.15;;;;;;;;;;6343301;22;20389;-64
2023/06/12 01:24:42;;;;;;;12.93;6.63;;;;;;;;;;6317483;22;20014;-64
2023/06/12 01:27:36;;;;;;;9.73;6.75;;;;;;;;;;6343395;22;20041;-65
2023/06/12 01:30:07;;;;;;;13.93;6.65;;;;;;;;;;6286177;22;20373;-64
2023/06/12 01:32:37;;;;;;;13.25;7.05;;;;;;;;;;6342881;22;20019;-64
2023/06/12 01:35:08;;;;;;;8.00;6.53;;;;;;;;;;6343106;22;20045;-65
2023/06/12 01:37:47;;;;;;;10.80;7.45;;;;;;;;;;6342459;22;20037;-64
2023/06/12 01:40:23;;;;;;;10.77;7.07;;;;;;;;;;6343219;22;20382;-64
2023/06/12 01:42:53;;;;;;;11.68;7.30;;;;;;;;;;6343370;22;20018;-64
2023/06/12 01:45:21;;;;;;;10.55;7.43;;;;;;;;;;6342592;22;20509;-65
2023/06/12 01:47:48;;;;;;;13.98;7.32;;;;;;;;;;6343188;22;20020;-65
2023/06/12 01:50:19;;;;;;;12.55;7.50;;;;;;;;;;6342960;22;20088;-65
2023/06/12 01:52:48;;;;;;;13.52;7.90;;;;;;;;;;6343009;22;20110;-65
2023/06/12 01:55:19;;;;;;;9.70;7.55;;;;;;;;;;6343324;22;20020;-65
2023/06/12 01:57:50;;;;;;;15.20;8.07;;;;;;;;;;6317866;22;20030;-65
2023/06/12 02:00:24;;;;;;;11.13;7.45;;;;;;;;;;6343444;22;20061;-65
2023/06/12 02:02:56;;;;;;;11.43;8.32;;;;;;;;;;6342847;22;20387;-65
2023/06/12 02:05:29;;;;;;;11.68;7.93;;;;;;;;;;6318309;22;20025;-65
2023/06/12 02:07:57;;;;;;;9.70;7.70;;;;;;;;;;6318012;22;20089;-65
2023/06/12 02:10:25;;;;;;;12.48;8.27;;;;;;;;;;6343240;22;20071;-65
2023/06/12 02:12:53;;;;;;;9.75;7.75;;;;;;;;;;6342838;22;20018;-65
2023/06/12 02:15:21;;;;;;;9.95;8.25;;;;;;;;;;6342747;22;20072;-65
2023/06/12 02:17:50;;;;;;;11.98;8.23;;;;;;;;;;6343213;22;20067;-64
2023/06/12 02:20:18;;;;;;;10.77;8.40;;;;;;;;;;6342546;22;20459;-65
2023/06/12 02:22:46;;;;;;;12.63;8.15;;;;;;;;;;6343413;22;20014;-64
2023/06/12 02:25:13;;;;;;;14.48;7.97;;;;;;;;;;6342947;22;20460;-64
2023/06/12 02:27:41;;;;;;;11.93;8.80;;;;;;;;;;6343205;22;20032;-64
2023/06/12 02:30:10;;;;;;;12.50;9.05;;;;;;;;;;6343527;22;20026;-64
2023/06/12 02:32:39;;;;;;;11.43;8.38;;;;;;;;;;6342883;22;20448;-64
2023/06/12 02:35:08;;;;;;;13.95;8.38;;;;;;;;;;6343132;22;20044;-64
2023/06/12 02:37:42;;;;;;;11.52;8.52;;;;;;;;;;6319144;22;20014;-64
2023/06/12 02:40:10;;;;;;;13.57;8.55;;;;;;;;;;6342311;22;20023;-64
2023/06/12 02:42:39;;;;;;;12.80;8.57;;;;;;;;;;6343106;22;20064;-64
2023/06/12 02:45:07;;;;;;;15.02;9.23;;;;;;;;;;6343013;22;20110;-64
2023/06/12 02:47:34;;;;;;;12.52;9.40;;;;;;;;;;6342421;22;20021;-64
2023/06/12 02:50:05;;;;;;;13.02;9.07;;;;;;;;;;6342919;22;20023;-64
2023/06/12 02:52:42;;;;;;;15.25;9.88;;;;;;;;;;6342478;22;20110;-64
2023/06/12 02:55:10;;;;;;;16.02;10.25;;;;;;;;;;6342732;22;20501;-64
2023/06/12 02:57:37;;;;;;;20.05;10.38;;;;;;;;;;6343248;22;20026;-63
2023/06/12 03:00:05;;;;;;;15.50;10.48;;;;;;;;;;6343275;22;20019;-63
2023/06/12 03:02:42;;;;;;;15.73;11.23;;;;;;;;;;6342191;22;20022;-64
2023/06/12 03:05:14;;;;;;;16.40;11.73;;;;;;;;;;6341715;22;20036;-64
2023/06/12 03:07:43;;;;;;;15.60;10.80;;;;;;;;;;6343082;22;20018;-64
2023/06/12 03:10:14;;;;;;;15.55;11.00;;;;;;;;;;6343262;22;20064;-64
2023/06/12 03:12:42;;;;;;;17.83;11.52;;;;;;;;;;6343221;22;20014;-64
2023/06/12 03:15:09;;;;;;;16.30;11.50;;;;;;;;;;6370957;22;20018;-63
2023/06/12 03:17:37;;;;;;;14.63;12.07;;;;;;;;;;6343006;22;20436;-63
2023/06/12 03:20:06;;;;;;;15.45;11.57;;;;;;;;;;6343289;22;20026;-64
2023/06/12 03:22:34;;;;;;;13.40;11.45;;;;;;;;;;6343050;22;20101;-63
2023/06/12 03:25:01;;;;;;;16.77;12.30;;;;;;;;;;6343356;22;20010;-63
2023/06/12 03:27:31;;;;;;;17.75;12.00;;;;;;;;;;6343148;22;20455;-64
2023/06/12 03:29:59;;;;;;;18.08;12.50;;;;;;;;;;6342427;22;20019;-64
2023/06/12 03:32:27;;;;;;;16.73;12.70;;;;;;;;;;6315442;22;20018;-64
2023/06/12 03:34:58;;;;;;;14.40;11.98;;;;;;;;;;6340394;22;20087;-64
2023/06/12 03:37:28;;;;;;;17.42;12.73;;;;;;;;;;6340773;22;20166;-64
2023/06/12 03:39:59;;;;;;;15.27;12.80;;;;;;;;;;6340425;22;20029;-64
2023/06/12 03:42:28;;;;;;;17.17;13.10;;;;;;;;;;6340894;22;20546;-64
2023/06/12 03:44:59;;;;;;;15.52;13.10;;;;;;;;;;6341358;22;20025;-64
2023/06/12 03:47:26;;;;;;;13.88;12.40;;;;;;;;;;6342679;22;20014;-64
2023/06/12 03:49:55;;;;;;;14.65;12.57;;;;;;;;;;6342956;22;20105;-64
2023/06/12 03:52:24;;;;;;;16.45;12.43;;;;;;;;;;6317548;22;20101;-64
2023/06/12 03:54:52;;;;;;;17.83;12.70;;;;;;;;;;6342867;22;20046;-64
2023/06/12 03:57:21;;;;;;;21.10;13.00;;;;;;;;;;6342790;22;20474;-64
2023/06/12 03:59:48;;;;;;;18.10;13.13;;;;;;;;;;6342654;22;20028;-64
2023/06/12 04:02:17;;;;;;;19.30;13.30;;;;;;;;;;6370548;22;20015;-65
2023/06/12 04:04:44;;;;;;;18.73;13.70;;;;;;;;;;6342601;22;20018;-64
2023/06/12 04:07:13;;;;;;;16.15;13.52;;;;;;;;;;6343152;22;20052;-65
2023/06/12 04:09:40;;;;;;;17.15;13.50;;;;;;;;;;6342558;22;20011;-65
2023/06/12 04:12:09;;;;;;;15.60;12.93;;;;;;;;;;6342981;22;20029;-64
2023/06/12 04:14:36;;;;;;;17.02;13.00;;;;;;;;;;6342606;22;20018;-64
2023/06/12 04:17:07;;;;;;;16.80;12.70;;;;;;;;;;6342341;22;20018;-65
2023/06/12 04:19:36;;;;;;;17.00;12.93;;;;;;;;;;6370638;22;20015;-65
2023/06/12 04:22:05;;;;;;;19.20;12.15;;;;;;;;;;6342280;22;20014;-65
2023/06/12 04:24:36;;;;;;;15.68;11.60;;;;;;;;;;6342349;22;20105;-65
2023/06/12 04:27:09;;;;;;;14.45;11.88;;;;;;;;;;6342408;22;20105;-65
2023/06/12 04:29:42;;;;;;;17.98;11.18;;;;;;;;;;6317627;22;20014;-65
2023/06/12 04:32:13;;;;;;;14.65;11.18;;;;;;;;;;6343299;22;20029;-65
2023/06/12 04:34:43;;;;;;;15.40;10.68;;;;;;;;;;6371070;22;20085;-65
2023/06/12 04:37:13;;;;;;;11.90;10.10;;;;;;;;;;6343622;22;20024;-65
2023/06/12 04:39:41;;;;;;;15.80;11.00;;;;;;;;;;6343642;22;20083;-65
2023/06/12 04:42:10;;;;;;;12.98;9.65;;;;;;;;;;6343050;22;20020;-66
2023/06/12 04:44:39;;;;;;;11.95;9.52;;;;;;;;;;6343076;22;20022;-65
2023/06/12 04:47:11;;;;;;;15.15;9.65;;;;;;;;;;6342376;22;20038;-65
2023/06/12 04:49:45;;;;;;;10.65;8.50;;;;;;;;;;6342486;22;20467;-65
2023/06/12 04:52:13;;;;;;;14.65;8.57;;;;;;;;;;6342452;22;20452;-65
2023/06/12 04:54:44;;;;;;;14.32;9.10;;;;;;;;;;6341949;22;20029;-65
2023/06/12 04:57:12;;;;;;;11.70;7.90;;;;;;;;;;6341180;22;20059;-65
2023/06/12 04:59:44;;;;;;;9.70;7.97;;;;;;;;;;6342953;22;20018;-65
2023/06/12 05:02:14;;;;;;;9.93;7.50;;;;;;;;;;6342782;22;20101;-65
2023/06/12 05:04:41;;;;;;;13.10;7.80;;;;;;;;;;6342579;22;20018;-65
2023/06/12 05:07:16;;;;;;;8.85;7.65;;;;;;;;;;6342722;22;20471;-66
2023/06/12 05:09:48;;;;;;;12.68;7.50;;;;;;;;;;6342879;22;20018;-65
2023/06/12 05:12:16;;;;;;;10.07;8.18;;;;;;;;;;6342779;22;20071;-65
2023/06/12 05:14:44;;;;;;;12.32;8.25;;;;;;;;;;6342702;22;20018;-65
2023/06/12 05:17:12;;;;;;;17.13;8.13;;;;;;;;;;6370633;22;20341;-66
2023/06/12 05:19:40;;;;;;;12.07;7.43;;;;;;;;;;6342632;22;20035;-65
2023/06/12 05:22:08;;;;;;;12.02;7.88;;;;;;;;;;6342229;22;20018;-65
2023/06/12 05:24:36;;;;;;;12.25;7.60;;;;;;;;;;6342586;22;20113;-65
2023/06/12 05:27:04;;;;;;;7.85;6.85;;;;;;;;;;6342208;22;20071;-65
2023/06/12 05:29:32;;;;;;;10.35;6.82;;;;;;;;;;6341615;22;20381;-65
2023/06/12 05:32:01;;;;;;;10.00;6.22;;;;;;;;;;6343319;22;20018;-65
2023/06/12 05:34:28;;;;;;;8.82;6.63;;;;;;;;;;6342043;22;20091;-65
2023/06/12 05:36:56;;;;;;;10.35;6.40;;;;;;;;;;6342143;22;20041;-64
2023/06/12 05:39:26;;;;;;;11.57;6.60;;;;;;;;;;6341993;22;20025;-63
2023/06/12 05:41:54;;;;;;;8.65;6.28;;;;;;;;;;6342207;22;20444;-65
2023/06/12 05:44:22;;;;;;;10.07;6.72;;;;;;;;;;6342207;22;20030;-64
2023/06/12 05:46:52;;;;;;;11.77;6.75;;;;;;;;;;6342461;22;20097;-65
2023/06/12 05:49:20;;;;;;;8.82;6.57;;;;;;;;;;6370181;22;20014;-64
2023/06/12 05:51:49;;;;;;;8.80;6.22;;;;;;;;;;6370059;22;20015;-64
2023/06/12 05:54:17;;;;;;;9.55;6.63;;;;;;;;;;6369786;22;20029;-65
2023/06/12 05:56:45;;;;;;;10.52;6.32;;;;;;;;;;6342067;22;20022;-64
2023/06/12 05:59:13;;;;;;;10.68;7.03;;;;;;;;;;6342178;22;20025;-64
2023/06/12 06:01:42;;;;;;;11.00;6.50;;;;;;;;;;6342020;22;20025;-66
2023/06/12 06:04:11;;;;;;;8.75;6.40;;;;;;;;;;6342183;22;20042;-65
2023/06/12 06:06:39;;;;;;;8.98;6.78;;;;;;;;;;6342047;22;20014;-64
2023/06/12 06:09:10;;;;;;;10.18;6.53;;;;;;;;;;6342147;22;20411;-64
2023/06/12 06:11:39;;;;;;;6.85;5.80;;;;;;;;;;6342036;22;20018;-64
2023/06/12 06:14:06;;;;;;;11.32;6.10;;;;;;;;;;6342320;22;20381;-65
2023/06/12 06:16:36;;;;;;;8.88;6.40;;;;;;;;;;6370007;22;20071;-65
2023/06/12 06:19:21;;;;;;;;;;;;;;;;;;6343414;22;20470;-64
2023/06/12 06:21:48;;;;;;;7.45;5.93;;;;;;;;;;6316911;22;19968;-65
2023/06/12 06:24:16;;;;;;;11.25;6.20;;;;;;;;;;6291364;22;20015;-65
2023/06/12 06:26:45;;;;;;;11.48;6.28;;;;;;;;;;6316925;22;20100;-64
2023/06/12 06:29:13;;;;;;;13.98;6.03;;;;;;;;;;6342563;22;20010;-64
2023/06/12 06:31:42;;;;;;;10.00;5.93;;;;;;;;;;6316865;22;20456;-65
2023/06/12 06:34:11;;;;;;;10.75;6.38;;;;;;;;;;6342180;22;20018;-65
2023/06/12 06:36:39;;;;;;;10.13;6.47;;;;;;;;;;6342582;22;20022;-65
2023/06/12 06:39:07;;;;;;;8.55;6.22;;;;;;;;;;6342087;22;20018;-65
2023/06/12 06:41:37;;;;;;;8.18;6.00;;;;;;;;;;6343930;22;20479;-65
2023/06/12 06:44:05;;;;;;;11.93;6.65;;;;;;;;;;6344771;22;20018;-65
2023/06/12 06:46:33;;;;;;;9.23;6.60;;;;;;;;;;6344421;22;20024;-65
2023/06/12 06:49:01;;;;;;;10.65;6.70;;;;;;;;;;6343779;22;20374;-65
2023/06/12 06:51:30;;;;;;;9.38;6.95;;;;;;;;;;6318269;22;20089;-65
2023/06/12 06:53:58;;;;;;;10.75;6.80;;;;;;;;;;6343678;22;20097;-65
2023/06/12 06:56:25;;;;;;;11.23;6.82;;;;;;;;;;6344142;22;20053;-65
2023/06/12 06:58:53;;;;;;;13.13;6.90;;;;;;;;;;6344173;22;20026;-66
2023/06/12 07:01:22;;;;;;;7.57;6.10;;;;;;;;;;6371331;22;20336;-65
2023/06/12 07:03:50;;;;;;;9.07;6.43;;;;;;;;;;6343874;22;20046;-65
2023/06/12 07:06:19;;;;;;;9.43;6.90;;;;;;;;;;6344108;22;20022;-65
2023/06/12 07:08:46;;;;;;;8.05;5.97;;;;;;;;;;6344318;22;20018;-65
2023/06/12 07:11:14;;;;;;;7.95;6.45;;;;;;;;;;6344128;22;20018;-65
2023/06/12 07:13:42;;;;;;;10.93;6.40;;;;;;;;;;6371385;22;20010;-65
2023/06/12 07:16:10;;;;;;;8.95;6.15;;;;;;;;;;6343355;22;20041;-66
2023/06/12 07:18:38;;;;;;;9.23;6.13;;;;;;;;;;6343114;22;20075;-65
2023/06/12 07:21:05;;;;;;;10.15;6.18;;;;;;;;;;6343257;22;20104;-65
2023/06/12 07:23:34;;;;;;;9.88;6.20;;;;;;;;;;6317703;22;20022;-65
2023/06/12 07:26:02;;;;;;;8.77;6.15;;;;;;;;;;6343159;22;20019;-65
2023/06/12 07:28:49;;;;;;;8.50;5.78;;;;;;;;;;6343079;22;20018;-66
2023/06/12 07:31:17;;;;;;;9.20;6.38;;;;;;;;;;6343108;22;20014;-66
2023/06/12 07:33:46;;;;;;;8.93;6.15;;;;;;;;;;6343033;22;20070;-65
2023/06/12 07:36:14;;;;;;;11.88;6.63;;;;;;;;;;6370995;22;20029;-65
2023/06/12 07:38:42;;;;;;;10.00;6.47;;;;;;;;;;6343433;22;20184;-65
2023/06/12 07:41:10;;;;;;;11.65;6.63;;;;;;;;;;6342830;22;20022;-65
2023/06/12 07:43:38;;;;;;;10.27;5.82;;;;;;;;;;6343184;22;20030;-65
2023/06/12 07:46:06;;;;;;;9.20;5.95;;;;;;;;;;6343445;22;20067;-65
2023/06/12 07:48:34;;;;;;;6.10;5.47;;;;;;;;;;6342955;22;20049;-65
2023/06/12 07:51:02;;;;;;;11.18;5.82;;;;;;;;;;6342906;22;20016;-65
2023/06/12 07:53:30;;;;;;;9.50;5.80;;;;;;;;;;6342924;22;20059;-65
2023/06/12 07:56:11;;;;;;;9.48;6.07;;;;;;;;;;6342934;22;20456;-65
2023/06/12 07:58:40;;;;;;;9.48;6.05;;;;;;;;;;6343007;22;20021;-64
2023/06/12 08:01:11;;;;;;;10.65;6.15;;;;;;;;;;6342875;22;20028;-65
2023/06/12 08:03:39;;;;;;;10.15;5.68;;;;;;;;;;6342694;22;20068;-65
2023/06/12 08:06:09;;;;;;;10.80;6.03;;;;;;;;;;6343133;22;20018;-65
2023/06/12 08:08:45;;;;;;;10.50;6.22;;;;;;;;;;6317519;22;20037;-65
2023/06/12 08:11:13;;;;;;;7.95;5.50;;;;;;;;;;6342810;22;20509;-65
2023/06/12 08:13:44;;;;;;;10.48;5.80;;;;;;;;;;6342836;22;20015;-65
2023/06/12 08:16:13;;;;;;;11.10;5.93;;;;;;;;;;6370616;22;20018;-65
2023/06/12 08:18:41;;;;;;;8.13;5.90;;;;;;;;;;6342893;22;20336;-65
2023/06/12 08:21:10;;;;;;;8.65;5.68;;;;;;;;;;6343119;22;20477;-65
2023/06/12 08:23:38;;;;;;;8.38;5.70;;;;;;;;;;6370773;22;20014;-65
2023/06/12 08:26:06;;;;;;;8.90;5.50;;;;;;;;;;6342873;22;20402;-65
2023/06/12 08:28:37;;;;;;;7.75;6.50;;;;;;;;;;6317186;22;20049;-65
2023/06/12 08:31:09;;;;;;;9.73;5.72;;;;;;;;;;6342993;22;20337;-65
2023/06/12 08:33:37;;;;;;;10.00;6.30;;;;;;;;;;6343036;22;20344;-65
2023/06/12 08:36:04;;;;;;;7.70;6.00;;;;;;;;;;6343095;22;20019;-66
2023/06/12 08:38:32;;;;;;;10.82;5.88;;;;;;;;;;6370921;22;20085;-65
2023/06/12 08:41:01;;;;;;;10.07;6.00;;;;;;;;;;6342525;22;20508;-65
2023/06/12 08:43:29;;;;;;;9.98;6.07;;;;;;;;;;6342342;22;20021;-65
2023/06/12 08:45:58;;;;;;;9.77;5.78;;;;;;;;;;6343411;22;20046;-66
2023/06/12 08:48:27;;;;;;;9.27;5.72;;;;;;;;;;6370293;22;20014;-66
2023/06/12 08:50:55;;;;;;;9.18;5.22;;;;;;;;;;6371729;22;20018;-64
2023/06/12 08:53:23;;;;;;;6.47;5.32;;;;;;;;;;6371865;22;20017;-66
2023/06/12 08:55:51;;;;;;;8.45;5.32;;;;;;;;;;6371588;22;20046;-65
2023/06/12 08:58:18;;;;;;;10.23;5.78;;;;;;;;;;6371642;22;20037;-65
2023/06/12 09:00:46;;;;;;;7.82;5.82;;;;;;;;;;6371559;22;20058;-65
2023/06/12 09:03:14;;;;;;;11.32;6.95;;;;;;;;;;6372196;22;20018;-65
2023/06/12 09:05:41;;;;;;;9.40;6.03;;;;;;;;;;6371116;22;20015;-64
2023/06/12 09:08:09;;;;;;;10.75;6.32;;;;;;;;;;6369377;22;20014;-65
2023/06/12 09:10:38;;;;;;;9.77;6.38;;;;;;;;;;6370684;22;20032;-65
2023/06/12 09:13:11;;;;;;;8.93;5.55;;;;;;;;;;6371665;22;20019;-66
2023/06/12 09:15:39;;;;;;;8.93;5.93;;;;;;;;;;6371097;22;20036;-66
2023/06/12 09:18:10;;;;;;;11.32;5.60;;;;;;;;;;6370910;22;20081;-65
2023/06/12 09:20:38;;;;;;;9.75;5.95;;;;;;;;;;6371065;22;20428;-66
2023/06/12 09:23:10;;;;;;;8.63;5.38;;;;;;;;;;6371394;22;20010;-65
2023/06/12 09:25:40;;;;;;;12.95;6.85;;;;;;;;;;6371342;22;20011;-66
2023/06/12 09:28:09;;;;;;;8.45;5.90;;;;;;;;;;6371468;22;20387;-65
2023/06/12 09:30:41;;;;;;;25.70;7.50;;;;;;;;;;6372085;22;20010;-65
2023/06/12 09:33:08;;;;;;;11.45;5.65;;;;;;;;;;6371896;22;20022;-65
2023/06/12 09:36:02;;;;;;;7.88;5.60;;;;;;;;;;6371505;22;20089;-65
2023/06/12 09:38:30;;;;;;;10.02;5.90;;;;;;;;;;6365880;22;20018;-65
2023/06/12 09:40:58;;;;;;;9.80;6.47;;;;;;;;;;6371680;22;20340;-66
2023/06/12 09:43:26;;;;;;;10.82;6.25;;;;;;;;;;6371279;22;20041;-66
2023/06/12 09:45:54;;;;;;;8.25;6.60;;;;;;;;;;6370527;22;20045;-66
2023/06/12 09:48:22;;;;;;;8.77;5.88;;;;;;;;;;6371056;22;20010;-66
2023/06/12 09:50:50;;;;;;;7.90;6.10;;;;;;;;;;6371108;22;20638;-65
2023/06/12 09:53:20;;;;;;;9.57;6.10;;;;;;;;;;6371174;22;20024;-65
2023/06/12 09:55:49;;;;;;;10.40;5.95;;;;;;;;;;6371196;22;20097;-65
2023/06/12 09:58:18;;;;;;;9.55;5.97;;;;;;;;;;6371425;22;20015;-65
2023/06/12 10:00:46;;;;;;;11.05;5.75;;;;;;;;;;6371695;22;20052;-65
2023/06/12 10:03:15;;;;;;;10.32;6.03;;;;;;;;;;6371076;22;20511;-66
2023/06/12 10:05:50;;;;;;;7.95;6.00;;;;;;;;;;6371032;22;20094;-65
2023/06/12 10:08:18;;;;;;;7.90;5.80;;;;;;;;;;6371078;22;20686;-66
2023/06/12 10:10:46;;;;;;;12.20;6.65;;;;;;;;;;6342882;22;20049;-66
2023/06/12 10:13:14;;;;;;;9.88;7.07;;;;;;;;;;6371495;22;20042;-65
2023/06/12 10:15:42;;;;;;;9.05;5.80;;;;;;;;;;6372639;22;20026;-66
2023/06/12 10:18:10;;;;;;;11.68;6.10;;;;;;;;;;6346710;22;20363;-66
2023/06/12 10:20:38;;;;;;;9.13;6.50;;;;;;;;;;6373353;22;20456;-65
2023/06/12 10:23:06;;;;;;;14.27;6.18;;;;;;;;;;6373548;22;20327;-65
2023/06/12 10:25:34;;;;;;;7.85;6.05;;;;;;;;;;6373767;22;20014;-66
2023/06/12 10:28:02;;;;;;;11.15;6.35;;;;;;;;;;6373269;22;20110;-65
2023/06/12 10:30:30;;;;;;;10.05;6.55;;;;;;;;;;6372940;22;20400;-65
2023/06/12 10:33:08;;;;;;;9.38;6.35;;;;;;;;;;6372636;22;20056;-65
2023/06/12 10:35:36;;;;;;;10.02;6.03;;;;;;;;;;6372439;22;20495;-65
2023/06/12 10:38:03;;;;;;;10.23;6.05;;;;;;;;;;6372536;22;20014;-65
2023/06/12 10:40:31;;;;;;;7.20;5.95;;;;;;;;;;6372439;22;20047;-65
2023/06/12 10:43:21;;;;;;;8.80;6.00;;;;;;;;;;6372883;22;20018;-65
2023/06/12 10:45:57;;;;;;;9.48;5.72;;;;;;;;;;6372857;22;20024;-65
2023/06/12 10:48:25;;;;;;;8.20;5.85;;;;;;;;;;6345083;22;20011;-66
2023/06/12 10:50:57;;;;;;;12.70;6.03;;;;;;;;;;6372733;22;20024;-65
2023/06/12 10:53:27;;;;;;;7.93;5.88;;;;;;;;;;6344082;22;20025;-65
2023/06/12 10:55:56;;;;;;;7.68;6.22;;;;;;;;;;6372558;22;20014;-65
2023/06/12 10:58:25;;;;;;;10.15;5.68;;;;;;;;;;6373297;22;20011;-65
2023/06/12 11:00:53;;;;;;;8.07;5.90;;;;;;;;;;6372846;22;20015;-65
2023/06/12 11:03:25;;;;;;;8.82;6.47;;;;;;;;;;6372983;22;20010;-65
2023/06/12 11:05:55;;;;;;;8.13;5.78;;;;;;;;;;6345356;22;20083;-65
2023/06/12 11:08:32;;;;;;;8.63;5.75;;;;;;;;;;6372923;22;20010;-65
2023/06/12 11:11:06;;;;;;;10.20;6.05;;;;;;;;;;6372786;22;20067;-65
2023/06/12 11:13:35;;;;;;;8.87;5.23;;;;;;;;;;6372739;22;20063;-65
2023/06/12 11:16:03;;;;;;;12.82;6.45;;;;;;;;;;6344429;22;20021;-65
2023/06/12 11:18:30;;;;;;;9.02;5.70;;;;;;;;;;6372816;22;20014;-65
2023/06/12 11:20:58;;;;;;;6.72;5.63;;;;;;;;;;6372291;22;20041;-65
2023/06/12 11:23:26;;;;;;;8.35;6.25;;;;;;;;;;6371742;22;20038;-65
2023/06/12 11:25:54;;;;;;;9.65;6.93;;;;;;;;;;6371769;22;20024;-65
2023/06/12 11:28:25;;;;;;;8.52;5.90;;;;;;;;;;6372392;22;20018;-65
2023/06/12 11:30:54;;;;;;;6.88;5.70;;;;;;;;;;6372679;22;20470;-65
2023/06/12 11:33:25;;;;;;;9.18;5.88;;;;;;;;;;6372521;22;20203;-65
2023/06/12 11:35:57;;;;;;;8.77;5.28;;;;;;;;;;6372615;22;20102;-65
2023/06/12 11:38:25;;;;;;;9.02;5.47;;;;;;;;;;6372408;22;20014;-65
2023/06/12 11:40:55;;;;;;;7.50;5.28;;;;;;;;;;6371397;22;20102;-65
2023/06/12 11:43:23;;;;;;;9.25;5.82;;;;;;;;;;6371760;22;20037;-65
2023/06/12 11:45:52;;;;;;;9.65;5.22;;;;;;;;;;6372318;22;20018;-65
2023/06/12 11:48:20;;;;;;;9.80;5.70;;;;;;;;;;6372264;22;20018;-65
2023/06/12 11:50:54;;;;;;;9.95;5.85;;;;;;;;;;6345479;22;20014;-65
2023/06/12 11:53:21;;;;;;;7.18;5.70;;;;;;;;;;6372454;22;20007;-65
2023/06/12 11:55:50;;;;;;;8.50;5.50;;;;;;;;;;6372382;22;20049;-65
2023/06/12 11:58:20;;;;;;;10.80;5.07;;;;;;;;;;6372480;22;20123;-65
2023/06/12 12:00:49;;;;;;;8.75;5.30;;;;;;;;;;6372325;22;20425;-65
2023/06/12 12:03:17;;;;;;;8.90;5.70;;;;;;;;;;6372229;22;20016;-65
2023/06/12 12:05:45;;;;;;;6.68;5.35;;;;;;;;;;6372215;22;20368;-65
2023/06/12 12:08:13;;;;;;;13.77;5.80;;;;;;;;;;6317828;22;20462;-65
2023/06/12 12:10:41;;;;;;;7.75;4.80;;;;;;;;;;6318164;22;20030;-65
2023/06/12 12:13:08;;;;;;;9.60;5.50;;;;;;;;;;6344343;22;20014;-65
2023/06/12 12:15:43;;;;;;;8.15;5.10;;;;;;;;;;6372045;22;20288;-64
2023/06/12 12:18:14;;;;;;;8.18;5.20;;;;;;;;;;6371752;22;20368;-65
2023/06/12 12:20:41;;;;;;;10.32;4.95;;;;;;;;;;6344878;22;20367;-64
2023/06/12 12:23:13;;;;;;;8.90;5.05;;;;;;;;;;6372008;22;20064;-64
2023/06/12 12:25:41;;;;;;;8.27;5.25;;;;;;;;;;6371905;22;20014;-65
2023/06/12 12:28:09;;;;;;;7.15;4.88;;;;;;;;;;6372077;22;20042;-65
2023/06/12 12:30:36;;;;;;;8.32;5.32;;;;;;;;;;6371885;22;20036;-65
2023/06/12 12:33:04;;;;;;;10.63;5.50;;;;;;;;;;6371346;22;20033;-65
2023/06/12 12:35:32;;;;;;;13.55;5.97;;;;;;;;;;6371848;22;20093;-65
2023/06/12 12:37:59;;;;;;;7.72;5.18;;;;;;;;;;6371661;22;20015;-65
2023/06/12 12:40:28;;;;;;;8.50;4.80;;;;;;;;;;6371663;22;20088;-66
2023/06/12 12:42:56;;;;;;;6.45;4.70;;;;;;;;;;6371880;22;20339;-65
2023/06/12 12:45:26;;;;;;;9.82;5.28;;;;;;;;;;6344275;22;20089;-66
2023/06/12 12:47:53;;;;;;;10.32;5.10;;;;;;;;;;6344213;22;20005;-66
2023/06/12 12:50:21;;;;;;;8.95;5.03;;;;;;;;;;6371953;22;20426;-66
2023/06/12 12:52:54;;;;;;;7.88;4.80;;;;;;;;;;6372171;22;20011;-66
2023/06/12 12:55:22;;;;;;;9.43;5.00;;;;;;;;;;6370935;22;20063;-65
2023/06/12 12:57:50;;;;;;;11.30;5.00;;;;;;;;;;6343404;22;20044;-66
2023/06/12 13:00:36;;;;;;;13.48;5.40;;;;;;;;;;6343256;22;20436;-66
2023/06/12 13:03:05;;;;;;;10.13;5.28;;;;;;;;;;6342868;22;20419;-65
2023/06/12 13:05:33;;;;;;;7.75;5.03;;;;;;;;;;6372432;22;20025;-66
2023/06/12 13:08:00;;;;;;;6.88;4.90;;;;;;;;;;6372034;22;20089;-66
2023/06/12 13:10:28;;;;;;;8.30;4.68;;;;;;;;;;6370625;22;20345;-65
2023/06/12 13:12:56;;;;;;;8.32;4.95;;;;;;;;;;6371327;22;20014;-66
2023/06/12 13:15:23;;;;;;;10.10;5.38;;;;;;;;;;6370884;22;20002;-66
2023/06/12 13:17:51;;;;;;;7.07;5.32;;;;;;;;;;6370963;22;20024;-65
2023/06/12 13:20:18;;;;;;;7.13;5.25;;;;;;;;;;6370860;22;20057;-65
2023/06/12 13:22:46;;;;;;;12.15;6.22;;;;;;;;;;6370206;22;20014;-65
2023/06/12 13:25:14;;;;;;;7.90;5.38;;;;;;;;;;6370621;22;20038;-65
2023/06/12 13:27:41;;;;;;;10.63;5.85;;;;;;;;;;6371065;22;20018;-65
2023/06/12 13:30:09;;;;;;;9.18;5.30;;;;;;;;;;6369694;22;20014;-66
2023/06/12 13:32:37;;;;;;;8.65;5.45;;;;;;;;;;6370982;22;20064;-65
2023/06/12 13:35:05;;;;;;;10.32;4.90;;;;;;;;;;6343528;22;20014;-66
2023/06/12 13:37:33;;;;;;;9.05;5.32;;;;;;;;;;6371366;22;20014;-66
2023/06/12 13:40:01;;;;;;;13.07;5.70;;;;;;;;;;6343108;22;20344;-66
2023/06/12 13:42:29;;;;;;;7.85;5.55;;;;;;;;;;6370448;22;20443;-66
2023/06/12 13:44:56;;;;;;;10.85;5.72;;;;;;;;;;6341851;22;20018;-67
2023/06/12 13:47:24;;;;;;;11.30;5.50;;;;;;;;;;6342843;22;20505;-66
2023/06/12 13:49:52;;;;;;;12.43;5.57;;;;;;;;;;6369962;22;20089;-65
2023/06/12 13:52:19;;;;;;;9.90;5.82;;;;;;;;;;6368570;22;20021;-66
2023/06/12 13:54:47;;;;;;;13.07;5.53;;;;;;;;;;6370293;22;20019;-64
2023/06/12 13:57:14;;;;;;;12.48;6.20;;;;;;;;;;6369601;22;20052;-65
2023/06/12 13:59:42;;;;;;;12.68;5.57;;;;;;;;;;6370000;22;20090;-65
2023/06/12 14:02:10;;;;;;;8.98;6.07;;;;;;;;;;6370855;22;20090;-65
2023/06/12 14:04:37;;;;;;;11.40;5.60;;;;;;;;;;6370055;22;20060;-65
2023/06/12 14:07:05;;;;;;;8.05;6.82;;;;;;;;;;6369593;22;20018;-65
2023/06/12 14:09:32;;;;;;;9.80;5.97;;;;;;;;;;6370598;22;20090;-66
2023/06/12 14:12:00;;;;;;;9.02;5.13;;;;;;;;;;6370105;22;20018;-66
2023/06/12 14:14:28;;;;;;;11.07;5.05;;;;;;;;;;6343131;22;20017;-75
2023/06/12 14:16:55;;;;;;;6.55;5.38;;;;;;;;;;6370099;22;20424;-66
2023/06/12 14:19:23;;;;;;;11.15;5.65;;;;;;;;;;6370262;22;20017;-66
2023/06/12 14:21:50;;;;;;;10.48;5.63;;;;;;;;;;6370759;22;20094;-66
2023/06/12 14:24:18;;;;;;;11.35;5.97;;;;;;;;;;6370364;22;20592;-66
2023/06/12 14:27:05;;;;;;;7.43;6.13;;;;;;;;;;6370015;22;20415;-66
2023/06/12 14:29:32;;;;;;;7.10;5.32;;;;;;;;;;6370199;22;20314;-65
2023/06/12 14:31:59;;;;;;;9.70;5.13;;;;;;;;;;6369390;22;20011;-65
2023/06/12 14:34:27;;;;;;;6.85;4.90;;;;;;;;;;6371281;22;20496;-66
2023/06/12 14:36:55;;;;;;;11.05;5.95;;;;;;;;;;6369879;22;20018;-67
2023/06/12 14:39:22;;;;;;;8.52;5.55;;;;;;;;;;6370131;22;20015;-67
2023/06/12 14:41:50;;;;;;;9.52;5.60;;;;;;;;;;6370513;22;20024;-67
2023/06/12 14:44:17;;;;;;;8.27;5.57;;;;;;;;;;6369456;22;20010;-65